METAR Data
IDs: Format: Raw Decoded Include TAF

Data at: 1333 UTC 14 Dec 2019

KRUE 141317Z AUTO 00000KT 1 3/4SM BR CLR M01/M02 A2982 RMK AO2 I1000 T10111017
KRUE 141253Z AUTO 00000KT 3SM BR SCT007 00/M01 A2981 RMK AO2 SLP092 I1001 T00001011
KRUE 141247Z AUTO 00000KT 1 1/4SM BR SCT005 M01/M01 A2981 RMK AO2 I1001
KRUE 141240Z AUTO 00000KT 1/2SM FZFG VV006 M01/M01 A2980 RMK AO2 I1001 T10061011
KRUE 141153Z AUTO 00000KT 1/4SM FG VV002 00/M01 A2980 RMK AO2 SLP088 I6000 T00001006 10017 20000 53008
KRUE 141130Z AUTO 00000KT 3/4SM BR VV003 01/M01 A2978 RMK AO2 T00061006
KRUE 141126Z AUTO 00000KT 2 1/2SM BR BKN001 01/M01 A2979 RMK AO2 VIS 3/4V5 T00061006
KRUE 141053Z AUTO 00000KT 5SM BR FEW002 01/01 A2977 RMK AO2 SLP080 T00110006
KRUE 141040Z AUTO 00000KT 7SM BKN002 02/01 A2978 RMK AO2 T00170006
KRUE 141025Z AUTO 29005KT 2SM BR BKN002 01/01 A2978 RMK AO2 PRESRR T00110006
KRUE 141015Z AUTO 12003KT 2 1/2SM BR SCT002 02/01 A2975 RMK AO2 T00170006
KRUE 140953Z AUTO 00000KT 5SM BR CLR 00/M01 A2977 RMK AO2 SLP079 T00001011
KRUE 140853Z AUTO 00000KT 5SM BR FEW110 01/00 A2980 RMK AO2 SLP089 I3000 T00110000 58001
KRUE 140753Z AUTO 00000KT 4SM BR CLR 01/M01 A2981 RMK AO2 SLP093 I1000 T00061006
KRUE 140653Z AUTO 00000KT 7SM CLR 01/M01 A2980 RMK AO2 SLP089 T00061006
KRUE 140553Z AUTO 16003KT 6SM BR FEW110 01/00 A2981 RMK AO2 PRESFR SLP091 T00110000 10050 20006 401110006 58016
KRUE 140453Z AUTO 00000KT 9SM CLR 01/00 A2984 RMK AO2 SLP103 T00110000
KRUE 140353Z AUTO 00000KT 7SM CLR 02/00 A2985 RMK AO2 SLP107 T00170000
KRUE 140253Z AUTO 00000KT 9SM CLR 02/01 A2985 RMK AO2 SLP108 T00170006 51008
KRUE 140153Z AUTO 00000KT 10SM CLR 02/01 A2985 RMK AO2 SLP106 T00220011
KRUE 140053Z AUTO 00000KT 10SM CLR 03/02 A2984 RMK AO2 SLP102 T00330017
KRUE 132353Z AUTO 00000KT 10SM CLR 04/02 A2983 RMK AO2 SLP099 T00440017 10111 20044 58001
KRUE 132253Z AUTO 00000KT 10SM OVC039 09/03 A2984 RMK AO2 SLP101 T00890033
KRUE 132153Z AUTO 13004KT 10SM OVC042 10/03 A2983 RMK AO2 SLP100 T01000033
KRUE 132053Z AUTO 12003KT 10SM OVC042 10/03 A2983 RMK AO2 SLP099 T01000028 56025
KRUE 131953Z AUTO 00000KT 10SM SCT048 SCT120 11/02 A2984 RMK AO2 SLP101 T01110022
KRUE 131853Z AUTO 00000KT 10SM BKN049 BKN110 10/02 A2987 RMK AO2 SLP112 T01000022
KRUE 131753Z AUTO 00000KT 10SM BKN100 09/02 A2991 RMK AO2 SLP125 T00890017 10089 20011 58025
KRUE 131553Z AUTO 18003KT 10SM FEW070 06/02 A2997 RMK AO2 SLP146 T00560017
KRUE 131453Z AUTO 29003KT 10SM BKN050 OVC060 04/01 A2998 RMK AO2 SLP152 T00440011 50001
KRUE 131353Z AUTO 00000KT 10SM OVC055 03/01 A2998 RMK AO2 SLP152 T00330006
KRUE 131253Z AUTO 00000KT 10SM OVC060 02/00 A2999 RMK AO2 SLP153 T00220000
KRUE 131153Z AUTO 00000KT 10SM CLR 01/M01 A2998 RMK AO2 SLP151 T00111006 10017 20006 56017
KRUE 131053Z AUTO 00000KT 10SM CLR 01/M01 A2999 RMK AO2 SLP152 T00111006
KRUE 130953Z AUTO 00000KT 10SM CLR 01/M01 A3002 RMK AO2 SLP162 T00111011
KRUE 130853Z AUTO 00000KT 10SM CLR 01/M01 A3003 RMK AO2 SLP167 T00111011 56019
KRUE 130753Z AUTO 00000KT 10SM CLR 01/M01 A3004 RMK AO2 SLP171 T00111011
KRUE 130653Z AUTO 00000KT 10SM CLR 02/M02 A3006 RMK AO2 SLP178 T00171017
KRUE 130553Z AUTO 00000KT 10SM CLR 01/M02 A3009 RMK AO2 SLP187 T00111022 10061 20006 401171022 58007
KRUE 130453Z AUTO 00000KT 10SM CLR 01/M03 A3010 RMK AO2 SLP191 T00061028
KRUE 130353Z AUTO 00000KT 10SM CLR 02/M02 A3011 RMK AO2 SLP195 T00221022
KRUE 130253Z AUTO 00000KT 10SM CLR 03/M03 A3011 RMK AO2 SLP195 T00331028 58006
KRUE 130153Z AUTO 00000KT 10SM CLR 04/M03 A3012 RMK AO2 SLP198 T00441028